createdAt,value
2022-08-29T00:00:18.147Z,101052.81
2022-08-29T00:02:50.696Z,101050.13
2022-08-29T00:05:24.861Z,101054.47
2022-08-29T00:07:52.766Z,101044.69
2022-08-29T00:10:21.401Z,101055.28
2022-08-29T00:12:48.519Z,101042.88
2022-08-29T00:15:16.215Z,101050.75
2022-08-29T00:17:43.733Z,101054.31
2022-08-29T00:20:15.681Z,101055.16
2022-08-29T00:22:42.816Z,101046.28
2022-08-29T00:25:11.801Z,101054.31
2022-08-29T00:27:38.350Z,101049.00
2022-08-29T00:30:07.370Z,101048.94
2022-08-29T00:32:36.193Z,101049.81
2022-08-29T00:35:07.432Z,101049.75
2022-08-29T00:37:34.129Z,101047.06
2022-08-29T00:40:00.875Z,101055.88
2022-08-29T00:42:28.033Z,101050.53
2022-08-29T00:44:54.869Z,101054.91
2022-08-29T00:47:26.717Z,101053.09
2022-08-29T00:49:57.192Z,101049.50
2022-08-29T00:52:34.180Z,101049.50
2022-08-29T00:55:04.059Z,101057.38
2022-08-29T00:57:32.305Z,101053.81
2022-08-29T00:59:59.738Z,101048.50
2022-08-29T01:02:26.643Z,101062.63
2022-08-29T01:04:54.146Z,101060.81
2022-08-29T01:07:20.751Z,101059.00
2022-08-29T01:09:47.447Z,101052.78
2022-08-29T01:12:19.332Z,101044.81
2022-08-29T01:14:53.085Z,101045.72
2022-08-29T01:17:47.177Z,101039.50
2022-08-29T01:20:23.547Z,101052.78
2022-08-29T01:23:20.447Z,101051.00
2022-08-29T01:25:49.304Z,101045.69
2022-08-29T01:28:21.799Z,101042.97
2022-08-29T01:30:58.442Z,101052.75
2022-08-29T01:33:25.537Z,101059.88
2022-08-29T01:35:52.464Z,101058.16
2022-08-29T01:38:27.627Z,101053.78
2022-08-29T01:41:02.599Z,101048.50
2022-08-29T01:43:29.635Z,101051.16
2022-08-29T01:45:58.542Z,101049.50
2022-08-29T01:48:25.217Z,101052.19
2022-08-29T01:50:51.974Z,101052.25
2022-08-29T01:53:19.364Z,101050.50
2022-08-29T01:55:45.909Z,101054.03
2022-08-29T01:58:12.656Z,101052.34
2022-08-29T02:00:39.694Z,101050.66
2022-08-29T02:03:07.215Z,101056.91
2022-08-29T02:05:33.836Z,101060.47
2022-08-29T02:08:00.568Z,101058.69
2022-08-29T02:10:27.116Z,101066.59
2022-08-29T02:12:53.726Z,101061.28
2022-08-29T02:15:21.473Z,101059.53
2022-08-29T02:17:48.671Z,101059.59
2022-08-29T02:20:15.955Z,101057.03
2022-08-29T02:22:42.761Z,101060.63
2022-08-29T02:25:29.540Z,101053.59
2022-08-29T02:27:57.669Z,101058.03
2022-08-29T02:30:25.587Z,101051.88
2022-08-29T02:32:52.614Z,101053.53
2022-08-29T02:35:19.481Z,101053.50
2022-08-29T02:37:46.010Z,101056.16
2022-08-29T02:40:12.558Z,101056.06
2022-08-29T02:42:39.138Z,101058.72
2022-08-29T02:45:06.155Z,101054.31
2022-08-29T02:47:35.496Z,101050.84
2022-08-29T02:50:05.912Z,101051.78
2022-08-29T02:52:36.766Z,101056.25
2022-08-29T02:55:04.332Z,101055.38
2022-08-29T02:57:30.893Z,101062.44
2022-08-29T02:59:57.405Z,101064.25
2022-08-29T03:02:23.975Z,101067.84
2022-08-29T03:04:50.513Z,101054.63
2022-08-29T03:07:17.037Z,101065.28
2022-08-29T03:09:43.580Z,101062.69
2022-08-29T03:12:10.161Z,101065.41
2022-08-29T03:14:36.830Z,101049.50
2022-08-29T03:17:03.613Z,101050.47
2022-08-29T03:19:30.184Z,101054.94
2022-08-29T03:21:56.701Z,101055.88
2022-08-29T03:24:23.577Z,101055.88
2022-08-29T03:26:56.527Z,101051.47
2022-08-29T03:29:23.921Z,101058.63
2022-08-29T03:31:50.443Z,101054.22
2022-08-29T03:34:17.017Z,101053.34
2022-08-29T03:36:43.686Z,101055.16
2022-08-29T03:39:10.321Z,101052.50
2022-08-29T03:41:36.954Z,101051.59
2022-08-29T03:44:03.651Z,101060.47
2022-08-29T03:46:30.204Z,101063.16
2022-08-29T03:48:56.765Z,101056.94
2022-08-29T03:51:24.051Z,101056.94
2022-08-29T03:53:56.018Z,101058.72
2022-08-29T03:56:23.043Z,101056.06
2022-08-29T03:58:53.328Z,101059.63
2022-08-29T04:01:22.690Z,101056.97
2022-08-29T04:03:49.645Z,101060.53
2022-08-29T04:06:16.579Z,101055.22
2022-08-29T04:08:43.486Z,101054.34
2022-08-29T04:11:12.046Z,101054.34
2022-08-29T04:13:38.527Z,101065.00
2022-08-29T04:16:17.088Z,101062.38
2022-08-29T04:18:43.851Z,101065.03
2022-08-29T04:21:10.564Z,101061.50
2022-08-29T04:23:38.856Z,101058.84
2022-08-29T04:26:31.650Z,101057.09
2022-08-29T04:28:58.772Z,101051.78
2022-08-29T04:31:25.473Z,101060.66
2022-08-29T04:33:52.011Z,101055.34
2022-08-29T04:36:18.944Z,101055.34
2022-08-29T04:38:45.444Z,101059.81
2022-08-29T04:41:15.894Z,101057.19
2022-08-29T04:43:42.841Z,101061.66
2022-08-29T04:46:09.442Z,101063.44
2022-08-29T04:48:50.434Z,101062.56
2022-08-29T04:51:16.972Z,101066.13
2022-08-29T04:53:43.502Z,101067.94
2022-08-29T04:56:12.297Z,101067.94
2022-08-29T04:58:41.971Z,101066.19
2022-08-29T05:01:19.005Z,101069.75
2022-08-29T05:03:45.896Z,101074.19
2022-08-29T05:06:14.771Z,101067.97
2022-08-29T05:08:43.096Z,101074.22
2022-08-29T05:11:13.109Z,101076.00
2022-08-29T05:13:39.654Z,101070.69
2022-08-29T05:16:12.033Z,101070.72
2022-08-29T05:18:39.238Z,101075.19
2022-08-29T05:21:06.335Z,101074.28
2022-08-29T05:23:33.352Z,101076.09
2022-08-29T05:26:03.367Z,101080.53
2022-08-29T05:28:31.886Z,101079.69
2022-08-29T05:31:00.101Z,101080.56
2022-08-29T05:33:27.517Z,101083.25
2022-08-29T05:35:54.141Z,101086.84
2022-08-29T05:38:20.889Z,101087.72
2022-08-29T05:40:47.500Z,101084.19
2022-08-29T05:43:14.145Z,101085.97
2022-08-29T05:45:41.751Z,101081.53
2022-08-29T05:48:09.627Z,101087.75
2022-08-29T05:50:43.268Z,101084.22
2022-08-29T05:53:16.706Z,101082.47
2022-08-29T05:55:44.273Z,101079.84
2022-08-29T05:58:12.522Z,101087.84
2022-08-29T06:00:43.934Z,101094.94
2022-08-29T06:03:11.748Z,101096.75
2022-08-29T06:05:39.185Z,101098.50
2022-08-29T06:08:06.653Z,101096.75
2022-08-29T06:10:34.330Z,101098.50
2022-08-29T06:13:00.836Z,101096.72
2022-08-29T06:15:29.772Z,101103.81
2022-08-29T06:17:56.805Z,101107.41
2022-08-29T06:20:23.640Z,101110.03
2022-08-29T06:22:50.230Z,101107.38
2022-08-29T06:25:37.941Z,101110.91
2022-08-29T06:28:03.644Z,101112.66
2022-08-29T06:30:33.809Z,101114.47
2022-08-29T06:33:01.395Z,101114.44
2022-08-29T06:35:28.219Z,101117.09
2022-08-29T06:37:54.673Z,101115.28
2022-08-29T06:40:21.302Z,101117.09
2022-08-29T06:42:47.908Z,101123.31
2022-08-29T06:45:14.943Z,101125.09
2022-08-29T06:47:41.443Z,101120.63
2022-08-29T06:50:08.356Z,101119.72
2022-08-29T06:52:35.609Z,101128.63
2022-08-29T06:55:02.843Z,101133.00
2022-08-29T06:57:29.532Z,101130.31
2022-08-29T06:59:56.103Z,101124.03
2022-08-29T07:02:22.725Z,101132.94
2022-08-29T07:04:49.327Z,101134.72
2022-08-29T07:07:15.911Z,101136.53
2022-08-29T07:09:42.504Z,101136.53
2022-08-29T07:12:09.012Z,101132.00
2022-08-29T07:14:35.569Z,101135.56
2022-08-29T07:17:02.141Z,101131.94
2022-08-29T07:19:28.745Z,101134.56
2022-08-29T07:21:58.476Z,101145.28
2022-08-29T07:24:25.657Z,101147.06
2022-08-29T07:26:52.232Z,101154.19
2022-08-29T07:29:21.261Z,101158.63
2022-08-29T07:31:48.339Z,101152.34
2022-08-29T07:34:15.686Z,101153.16
2022-08-29T07:36:42.378Z,101158.53
2022-08-29T07:39:16.884Z,101163.81
2022-08-29T07:41:44.462Z,101158.44
2022-08-29T07:44:12.384Z,101149.47
2022-08-29T07:46:38.918Z,101143.16
2022-08-29T07:49:05.730Z,101140.34
2022-08-29T07:51:32.284Z,101142.97
2022-08-29T07:53:59.052Z,101142.00
2022-08-29T07:56:30.317Z,101142.00
2022-08-29T07:58:59.128Z,101149.16
2022-08-29T08:01:26.975Z,101146.53
2022-08-29T08:03:54.143Z,101142.91
2022-08-29T08:06:23.122Z,101144.56
2022-08-29T08:08:51.083Z,101148.06
2022-08-29T08:11:18.820Z,101145.31
2022-08-29T08:13:45.768Z,101143.47
2022-08-29T08:16:16.028Z,101151.53
2022-08-29T08:18:43.914Z,101147.88
2022-08-29T08:21:12.003Z,101151.41
2022-08-29T08:23:40.467Z,101156.81
2022-08-29T08:26:08.391Z,101154.13
2022-08-29T08:28:35.246Z,101160.38
2022-08-29T08:31:06.413Z,101162.06
2022-08-29T08:33:35.786Z,101165.50
2022-08-29T08:36:06.123Z,101165.38
2022-08-29T08:38:32.936Z,101155.38
2022-08-29T08:41:28.439Z,101151.56
2022-08-29T08:44:04.066Z,101157.59
2022-08-29T08:46:42.004Z,101162.91
2022-08-29T08:49:42.332Z,101158.69
2022-08-29T08:52:21.263Z,101156.94
2022-08-29T08:54:59.590Z,101156.00
2022-08-29T08:57:32.161Z,101151.50
2022-08-29T08:59:59.375Z,101147.91
2022-08-29T09:02:35.547Z,101158.59
2022-08-29T09:05:21.357Z,101165.66
2022-08-29T09:08:12.569Z,101168.34
2022-08-29T09:10:59.405Z,101162.13
2022-08-29T09:13:51.585Z,101158.44
2022-08-29T09:16:34.107Z,101170.88
2022-08-29T09:19:09.481Z,101158.31
2022-08-29T09:22:03.477Z,101155.56
2022-08-29T09:24:40.742Z,101150.16
2022-08-29T09:27:09.001Z,101155.38
2022-08-29T09:29:37.257Z,101151.72
2022-08-29T09:32:12.675Z,101146.34
2022-08-29T09:35:07.502Z,101144.38
2022-08-29T09:37:35.130Z,101155.91
2022-08-29T09:40:11.313Z,101151.25
2022-08-29T09:42:43.377Z,101152.84
2022-08-29T09:45:23.843Z,101158.69
2022-08-29T09:48:07.199Z,101155.59
2022-08-29T09:50:33.778Z,101155.50
2022-08-29T09:53:02.461Z,101150.75
2022-08-29T09:55:45.510Z,101156.97
2022-08-29T09:58:19.111Z,101154.19
2022-08-29T10:01:04.681Z,101151.47
2022-08-29T10:03:41.381Z,101148.88
2022-08-29T10:06:21.590Z,101146.22
2022-08-29T10:09:05.575Z,101144.34
2022-08-29T10:11:44.067Z,101151.41
2022-08-29T10:14:16.750Z,101136.97
2022-08-29T10:17:19.444Z,101140.31
2022-08-29T10:19:46.309Z,101141.75
2022-08-29T10:22:35.776Z,101137.06
2022-08-29T10:25:11.851Z,101145.78
2022-08-29T10:27:54.251Z,101153.78
2022-08-29T10:30:40.220Z,101149.69
2022-08-29T10:33:14.479Z,101147.63
2022-08-29T10:35:54.735Z,101151.69
2022-08-29T10:38:44.454Z,101146.59
2022-08-29T10:41:29.099Z,101149.06
2022-08-29T10:47:21.869Z,101149.25
2022-08-29T10:50:27.521Z,101152.56
2022-08-29T10:53:23.980Z,101145.03
2022-08-29T10:56:06.377Z,101145.81
2022-08-29T10:58:51.780Z,101143.75
2022-08-29T11:01:36.487Z,101144.50
2022-08-29T11:04:17.256Z,101151.91
2022-08-29T11:06:55.212Z,101148.41
2022-08-29T11:09:27.712Z,101154.59
2022-08-29T11:12:07.941Z,101154.44
2022-08-29T11:14:40.731Z,101143.66
2022-08-29T11:17:11.497Z,101149.91
2022-08-29T11:19:45.809Z,101147.91
2022-08-29T11:22:39.189Z,101141.81
2022-08-29T11:25:12.390Z,101136.38
2022-08-29T11:27:53.511Z,101136.91
2022-08-29T11:30:27.865Z,101151.97
2022-08-29T11:33:14.903Z,101144.25
2022-08-29T11:36:19.156Z,101149.91
2022-08-29T11:38:59.213Z,101142.47
2022-08-29T11:41:52.302Z,101133.25
2022-08-29T11:44:27.745Z,101147.53
2022-08-29T11:46:56.646Z,101151.13
2022-08-29T11:49:48.916Z,101147.31
2022-08-29T11:52:22.306Z,101145.41
2022-08-29T11:54:54.277Z,101139.69
2022-08-29T11:57:20.765Z,101149.81
2022-08-29T11:59:49.809Z,101149.91
2022-08-29T12:02:28.482Z,101138.09
2022-08-29T12:04:57.888Z,101139.75
2022-08-29T12:07:44.457Z,101140.53
2022-08-29T12:10:29.455Z,101135.84
2022-08-29T12:13:04.085Z,101131.94
2022-08-29T12:15:31.744Z,101118.06
2022-08-29T12:18:13.280Z,101127.06
2022-08-29T12:20:50.867Z,101133.78
2022-08-29T12:23:24.216Z,101142.25
2022-08-29T12:26:15.744Z,101136.28
2022-08-29T12:28:56.170Z,101124.97
2022-08-29T12:31:26.939Z,101122.38
2022-08-29T12:34:19.448Z,101128.63
2022-08-29T12:37:17.084Z,101122.03
2022-08-29T12:39:58.368Z,101115.41
2022-08-29T12:42:46.420Z,101115.06
2022-08-29T12:45:18.998Z,101110.06
2022-08-29T12:47:50.718Z,101110.50
2022-08-29T12:50:25.267Z,101117.06
2022-08-29T12:53:02.142Z,101106.22
2022-08-29T12:55:36.950Z,101107.22
2022-08-29T12:58:03.524Z,101102.84
2022-08-29T13:00:32.466Z,101101.44
2022-08-29T13:03:20.421Z,101097.03
2022-08-29T13:05:48.195Z,101100.63
2022-08-29T13:08:27.090Z,101097.31
2022-08-29T13:11:04.043Z,101097.47
2022-08-29T13:13:30.798Z,101097.44
2022-08-29T13:16:01.558Z,101095.38
2022-08-29T13:18:29.759Z,101087.84
2022-08-29T13:21:28.697Z,101090.22
2022-08-29T13:24:01.241Z,101086.03
2022-08-29T13:26:32.317Z,101082.53
2022-08-29T13:29:27.620Z,101082.94
2022-08-29T13:32:24.138Z,101070.66
2022-08-29T13:35:13.816Z,101071.16
2022-08-29T13:37:43.800Z,101074.28
2022-08-29T13:40:29.278Z,101068.34
2022-08-29T13:42:56.765Z,101078.59
2022-08-29T13:45:25.104Z,101063.41
2022-08-29T13:48:01.553Z,101065.28
2022-08-29T13:50:29.114Z,101065.28
2022-08-29T13:52:57.540Z,101056.28
2022-08-29T13:55:24.998Z,101054.47
2022-08-29T13:57:53.268Z,101053.50
2022-08-29T14:00:24.680Z,101049.09
2022-08-29T14:03:03.036Z,101045.53
2022-08-29T14:05:30.146Z,101038.38
2022-08-29T14:07:56.862Z,101043.69
2022-08-29T14:10:23.490Z,101040.00
2022-08-29T14:12:50.046Z,101043.50
2022-08-29T14:15:21.049Z,101038.00
2022-08-29T14:17:48.105Z,101038.78
2022-08-29T14:20:17.611Z,101039.56
2022-08-29T14:22:45.232Z,101036.59
2022-08-29T14:25:13.734Z,101038.94
2022-08-29T14:27:40.960Z,101035.75
2022-08-29T14:30:10.380Z,101042.41
2022-08-29T14:32:37.302Z,101035.75
2022-08-29T14:35:05.887Z,101027.47
2022-08-29T14:37:32.672Z,101028.50
2022-08-29T14:39:59.290Z,101026.56
2022-08-29T14:42:26.003Z,101028.44
2022-08-29T14:44:52.764Z,101027.34
2022-08-29T14:47:20.446Z,101025.34
2022-08-29T14:49:46.941Z,101024.19
2022-08-29T14:52:15.059Z,101013.94
2022-08-29T14:54:43.158Z,101016.28
2022-08-29T14:57:10.661Z,101008.59
2022-08-29T14:59:39.624Z,101013.56
2022-08-29T15:02:08.261Z,101012.03
2022-08-29T15:04:37.034Z,101009.47
2022-08-29T15:07:11.875Z,101012.75
2022-08-29T15:09:39.496Z,101007.59
2022-08-29T15:12:06.319Z,101009.47
2022-08-29T15:14:34.642Z,101010.25
2022-08-29T15:17:02.067Z,101005.66
2022-08-29T15:20:15.900Z,101010.09
2022-08-29T15:22:15.487Z,100999.13
2022-08-29T15:24:42.744Z,100995.38
2022-08-29T15:27:09.975Z,101002.44
2022-08-29T15:29:37.417Z,101004.19
2022-08-29T15:32:05.055Z,101005.84
2022-08-29T15:34:31.907Z,100996.88
2022-08-29T15:36:59.554Z,100996.88
2022-08-29T15:39:27.617Z,100996.13
2022-08-29T15:41:59.736Z,100997.16
2022-08-29T15:44:28.400Z,100999.13
2022-08-29T15:46:56.700Z,100998.44
2022-08-29T15:49:25.978Z,100990.22
2022-08-29T15:51:53.663Z,100994.91
2022-08-29T15:54:20.807Z,100998.38
2022-08-29T15:56:47.423Z,100990.69
2022-08-29T15:59:15.370Z,100996.06
2022-08-29T16:01:45.969Z,100992.53
2022-08-29T16:04:14.106Z,100991.75
2022-08-29T16:06:40.942Z,100995.41
2022-08-29T16:09:15.187Z,100993.50
2022-08-29T16:11:44.319Z,100992.28
2022-08-29T16:16:58.432Z,100994.97
2022-08-29T16:19:25.036Z,100986.28
2022-08-29T16:21:51.954Z,100991.91
2022-08-29T16:24:21.618Z,100990.34
2022-08-29T16:26:48.182Z,100999.38
2022-08-29T16:29:14.733Z,100990.47
2022-08-29T16:31:53.894Z,100989.69
2022-08-29T16:34:20.870Z,100997.91
2022-08-29T16:36:47.391Z,100989.03
2022-08-29T16:39:13.955Z,100985.50
2022-08-29T16:41:40.510Z,100983.81
2022-08-29T16:44:08.205Z,100989.03
2022-08-29T16:46:34.799Z,100990.25
2022-08-29T16:49:01.467Z,100978.78
2022-08-29T16:51:28.284Z,100985.59
2022-08-29T16:53:58.126Z,100988.03
2022-08-29T16:56:24.914Z,100980.06
2022-08-29T16:59:01.499Z,100989.53
2022-08-29T17:01:34.463Z,100979.22
2022-08-29T17:04:02.377Z,100986.75
2022-08-29T17:06:30.192Z,100991.75
2022-08-29T17:08:57.208Z,100986.59
2022-08-29T17:11:24.403Z,100987.53
2022-08-29T17:13:51.076Z,100986.69
2022-08-29T17:16:18.132Z,100988.50
2022-08-29T17:18:45.225Z,100993.69
2022-08-29T17:21:12.008Z,100996.91
2022-08-29T17:23:39.001Z,100997.25
2022-08-29T17:26:08.311Z,100998.44
2022-08-29T17:28:36.637Z,100996.00
2022-08-29T17:31:03.544Z,100996.34
2022-08-29T17:33:30.130Z,101003.81
2022-08-29T17:35:56.889Z,100995.91
2022-08-29T17:38:24.683Z,101004.34
2022-08-29T17:40:57.163Z,101003.09
2022-08-29T17:43:25.900Z,101003.63
2022-08-29T17:45:52.875Z,101000.47
2022-08-29T17:48:20.209Z,101000.97
2022-08-29T17:50:48.165Z,101009.44
2022-08-29T17:53:14.990Z,101005.38
2022-08-29T17:55:41.976Z,101003.88
2022-08-29T17:58:08.799Z,101004.16
2022-08-29T18:00:36.022Z,101002.56
2022-08-29T18:03:02.599Z,101001.88
2022-08-29T18:05:29.379Z,101002.94
2022-08-29T18:07:56.988Z,101004.84
2022-08-29T18:10:24.017Z,101005.88
2022-08-29T18:12:50.550Z,101002.44
2022-08-29T18:15:17.261Z,101007.03
2022-08-29T18:17:45.289Z,101014.38
2022-08-29T18:20:15.685Z,101029.75
2022-08-29T18:22:43.190Z,101029.06
2022-08-29T18:25:11.369Z,101031.94
2022-08-29T18:27:43.681Z,101032.19
2022-08-29T18:30:13.616Z,101038.72
2022-08-29T18:32:40.893Z,101044.34
2022-08-29T18:35:08.497Z,101040.13
2022-08-29T18:37:35.369Z,101048.47
2022-08-29T18:40:02.631Z,101050.53
2022-08-29T18:42:40.649Z,101055.19
2022-08-29T18:45:09.667Z,101055.50
2022-08-29T18:47:37.099Z,101054.88
2022-08-29T18:50:25.082Z,101060.53
2022-08-29T18:52:52.972Z,101055.44
2022-08-29T18:55:20.645Z,101062.00
2022-08-29T18:57:48.258Z,101064.97
2022-08-29T19:00:16.373Z,101067.88
2022-08-29T19:02:43.164Z,101076.16
2022-08-29T19:05:10.226Z,101079.06
2022-08-29T19:07:36.808Z,101077.41
2022-08-29T19:10:05.854Z,101079.44
2022-08-29T19:12:32.680Z,101085.84
2022-08-29T19:15:00.091Z,101087.78
2022-08-29T19:17:26.831Z,101092.38
2022-08-29T19:20:12.360Z,101097.94
2022-08-29T19:22:39.434Z,101090.94
2022-08-29T19:25:08.638Z,101099.09
2022-08-29T19:27:43.564Z,101097.44
2022-08-29T19:30:13.329Z,101097.56
2022-08-29T19:32:40.205Z,101103.94
2022-08-29T19:35:07.748Z,101106.75
2022-08-29T19:37:34.352Z,101109.47
2022-08-29T19:40:01.765Z,101110.41
2022-08-29T19:42:28.439Z,101121.25
2022-08-29T19:44:55.339Z,101119.56
2022-08-29T19:47:24.015Z,101126.75
2022-08-29T19:49:51.036Z,101125.06
2022-08-29T19:52:18.051Z,101124.22
2022-08-29T19:54:44.668Z,101121.59
2022-08-29T19:57:14.768Z,101127.94
2022-08-29T19:59:42.352Z,101124.44
2022-08-29T20:02:09.509Z,101138.81
2022-08-29T20:04:36.387Z,101141.56
2022-08-29T20:07:03.114Z,101142.50
2022-08-29T20:09:30.054Z,101143.47
2022-08-29T20:11:57.131Z,101143.53
2022-08-29T20:14:24.220Z,101149.81
2022-08-29T20:16:51.698Z,101156.13
2022-08-29T20:19:18.986Z,101147.19
2022-08-29T20:21:46.026Z,101152.63
2022-08-29T20:24:15.518Z,101152.66
2022-08-29T20:26:42.936Z,101153.63
2022-08-29T20:29:11.766Z,101155.47
2022-08-29T20:31:39.069Z,101156.38
2022-08-29T20:34:05.873Z,101155.53
2022-08-29T20:36:51.042Z,101162.72
2022-08-29T20:39:20.161Z,101166.31
2022-08-29T20:41:56.076Z,101167.22
2022-08-29T20:44:24.987Z,101156.56
2022-08-29T20:46:52.179Z,101156.56
2022-08-29T20:49:23.300Z,101167.31
2022-08-29T20:51:51.448Z,101164.66
2022-08-29T20:54:22.112Z,101169.16
2022-08-29T20:56:49.445Z,101167.41
2022-08-29T20:59:16.090Z,101163.84
2022-08-29T21:01:43.511Z,101178.16
2022-08-29T21:04:30.307Z,101187.09
2022-08-29T21:07:01.078Z,101186.25
2022-08-29T21:09:28.212Z,101186.25
2022-08-29T21:11:55.484Z,101183.59
2022-08-29T21:14:22.732Z,101189.84
2022-08-29T21:16:51.538Z,101190.75
2022-08-29T21:19:18.814Z,101200.59
2022-08-29T21:21:45.582Z,101195.25
2022-08-29T21:24:12.511Z,101196.16
2022-08-29T21:26:40.047Z,101195.31
2022-08-29T21:29:07.735Z,101201.56
2022-08-29T21:31:36.061Z,101194.44
2022-08-29T21:34:06.802Z,101193.56
2022-08-29T21:36:36.075Z,101198.03
2022-08-29T21:39:05.015Z,101197.16
2022-08-29T21:41:32.849Z,101197.19
2022-08-29T21:43:59.470Z,101192.75
2022-08-29T21:46:29.727Z,101189.22
2022-08-29T21:48:59.769Z,101184.75
2022-08-29T21:51:28.364Z,101186.53
2022-08-29T21:53:56.678Z,101189.25
2022-08-29T21:56:25.253Z,101181.22
2022-08-29T21:58:56.884Z,101183.00
2022-08-29T22:01:27.671Z,101185.69
2022-08-29T22:03:54.709Z,101183.03
2022-08-29T22:06:22.400Z,101176.78
2022-08-29T22:08:49.326Z,101189.25
2022-08-29T22:11:24.181Z,101180.34
2022-08-29T22:13:51.784Z,101192.78
2022-08-29T22:16:28.767Z,101191.03
2022-08-29T22:19:07.841Z,101190.13
2022-08-29T22:21:38.338Z,101190.13
2022-08-29T22:24:06.744Z,101193.69
2022-08-29T22:26:34.825Z,101186.56
2022-08-29T22:29:02.063Z,101194.56
2022-08-29T22:31:28.693Z,101188.34
2022-08-29T22:33:55.477Z,101188.38
2022-08-29T22:36:22.551Z,101189.25
2022-08-29T22:38:56.558Z,101180.34
2022-08-29T22:41:24.340Z,101178.56
2022-08-29T22:44:11.343Z,101181.22
2022-08-29T22:46:43.143Z,101179.44
2022-08-29T22:49:10.026Z,101171.44
2022-08-29T22:51:36.565Z,101174.97
2022-08-29T22:54:21.717Z,101175.84
2022-08-29T22:56:48.275Z,101182.09
2022-08-29T22:59:14.947Z,101181.19
2022-08-29T23:01:44.150Z,101185.63
2022-08-29T23:04:11.293Z,101182.94
2022-08-29T23:06:38.110Z,101188.28
2022-08-29T23:09:05.660Z,101195.38
2022-08-29T23:11:32.643Z,101194.47
2022-08-29T23:13:59.180Z,101204.25
2022-08-29T23:16:25.835Z,101194.44
2022-08-29T23:18:52.386Z,101195.31
2022-08-29T23:21:19.893Z,101197.94
2022-08-29T23:23:46.537Z,101197.06
2022-08-29T23:26:13.104Z,101193.50
2022-08-29T23:28:40.351Z,101203.25
2022-08-29T23:31:07.025Z,101195.25
2022-08-29T23:33:35.900Z,101194.34
2022-08-29T23:36:03.072Z,101200.53
2022-08-29T23:38:29.636Z,101197.88
2022-08-29T23:40:57.513Z,101196.97
2022-08-29T23:43:24.745Z,101196.06
2022-08-29T23:45:54.592Z,101196.03
2022-08-29T23:48:25.893Z,101205.78
2022-08-29T23:50:53.446Z,101206.69
2022-08-29T23:53:21.557Z,101208.44
2022-08-29T23:55:48.982Z,101203.97
2022-08-29T23:58:16.120Z,101207.50
